createdAt,value
2019-03-01T00:01:58.158Z,17.30
2019-03-01T00:05:04.814Z,19.60
2019-03-01T00:08:17.191Z,28.20
2019-03-01T00:11:36.096Z,17.17
2019-03-01T00:15:09.687Z,18.42
2019-03-01T00:18:41.841Z,23.18
2019-03-01T00:22:16.856Z,20.12
2019-03-01T00:25:49.414Z,21.17
2019-03-01T00:29:07.918Z,20.80
2019-03-01T00:32:33.754Z,29.60
2019-03-01T00:35:51.546Z,22.27
2019-03-01T00:39:08.171Z,23.57
2019-03-01T00:42:10.649Z,22.62
2019-03-01T00:45:03.333Z,31.57
2019-03-01T00:47:58.650Z,17.00
2019-03-01T00:50:52.797Z,18.13
2019-03-01T00:53:47.386Z,17.10
2019-03-01T00:56:41.883Z,26.57
2019-03-01T00:59:36.315Z,23.80
2019-03-01T01:02:30.987Z,26.85
2019-03-01T01:05:25.492Z,31.30
2019-03-01T01:08:19.741Z,19.17
2019-03-01T01:11:14.384Z,23.02
2019-03-01T01:14:08.938Z,34.10
2019-03-01T01:17:03.315Z,39.40
2019-03-01T01:19:57.780Z,41.37
2019-03-01T01:22:52.097Z,31.97
2019-03-01T01:25:47.414Z,36.10
2019-03-01T01:28:41.803Z,42.17
2019-03-01T01:31:36.538Z,44.48
2019-03-01T01:34:31.179Z,49.83
2019-03-01T01:37:26.655Z,39.25
2019-03-01T01:40:21.166Z,29.87
2019-03-01T01:43:15.553Z,36.05
2019-03-01T01:46:10.410Z,32.10
2019-03-01T01:49:05.115Z,31.52
2019-03-01T01:52:00.602Z,30.32
2019-03-01T01:54:55.156Z,29.95
2019-03-01T01:57:49.789Z,41.00
2019-03-01T02:00:44.714Z,28.57
2019-03-01T02:03:39.266Z,30.10
2019-03-01T02:06:33.982Z,45.78
2019-03-01T02:09:29.209Z,39.13
2019-03-01T02:12:23.819Z,27.73
2019-03-01T02:15:18.259Z,34.20
2019-03-01T02:18:12.856Z,29.87
2019-03-01T02:21:07.346Z,41.83
2019-03-01T02:24:01.732Z,29.83
2019-03-01T02:27:15.361Z,41.10
2019-03-01T02:30:14.683Z,30.97
2019-03-01T02:33:09.721Z,61.73
2019-03-01T02:36:04.118Z,49.83
2019-03-01T02:38:58.592Z,37.07
2019-03-01T02:41:53.416Z,53.98
2019-03-01T02:44:47.903Z,37.65
2019-03-01T02:47:42.342Z,52.20
2019-03-01T02:50:36.453Z,45.97
2019-03-01T02:53:31.842Z,55.70
2019-03-01T02:56:26.437Z,53.07
2019-03-01T02:59:21.014Z,46.02
2019-03-01T03:02:15.669Z,47.90
2019-03-01T03:05:11.521Z,33.80
2019-03-01T03:09:04.341Z,46.88
2019-03-01T03:12:06.057Z,33.13
2019-03-01T03:15:00.750Z,34.50
2019-03-01T03:17:57.164Z,41.63
2019-03-01T03:20:52.171Z,34.00
2019-03-01T03:23:46.515Z,34.95
2019-03-01T03:26:41.827Z,33.78
2019-03-01T03:29:36.480Z,36.80
2019-03-01T03:32:31.264Z,33.65
2019-03-01T03:35:26.217Z,37.23
2019-03-01T03:38:20.870Z,34.48
2019-03-01T03:41:16.386Z,37.97
2019-03-01T03:44:12.883Z,24.12
2019-03-01T03:47:07.831Z,42.83
2019-03-01T03:50:03.045Z,26.23
2019-03-01T03:52:58.863Z,27.58
2019-03-01T03:55:54.544Z,32.63
2019-03-01T03:58:49.133Z,35.50
2019-03-01T04:01:44.323Z,41.20
2019-03-01T04:04:39.343Z,32.87
2019-03-01T04:07:39.695Z,41.95
2019-03-01T04:10:35.957Z,115.75
2019-03-01T04:13:30.599Z,87.43
2019-03-01T04:16:25.687Z,95.97
2019-03-01T04:19:20.700Z,68.47
2019-03-01T04:22:15.040Z,61.80
2019-03-01T04:28:02.336Z,48.35
2019-03-01T04:30:56.789Z,41.73
2019-03-01T04:33:56.551Z,53.70
2019-03-01T04:36:55.552Z,35.33
2019-03-01T04:39:58.364Z,46.85
2019-03-01T04:42:58.648Z,39.57
2019-03-01T04:45:58.474Z,37.10
2019-03-01T04:48:59.200Z,37.65
2019-03-01T04:51:57.888Z,37.47
2019-03-01T04:54:54.001Z,40.50
2019-03-01T04:57:46.555Z,36.50
2019-03-01T05:03:33.196Z,37.42
2019-03-01T05:06:45.476Z,35.50
2019-03-01T05:09:45.237Z,44.65
2019-03-01T05:12:41.027Z,42.00
2019-03-01T05:15:36.460Z,34.03
2019-03-01T05:18:31.265Z,31.90
2019-03-01T05:21:28.502Z,32.37
2019-03-01T05:24:25.944Z,27.20
2019-03-01T05:27:29.782Z,44.27
2019-03-01T05:30:30.440Z,37.85
2019-03-01T05:34:00.224Z,42.87
2019-03-01T05:37:20.986Z,34.38
2019-03-01T05:40:31.467Z,35.17
2019-03-01T05:44:22.993Z,49.20
2019-03-01T05:47:28.714Z,34.88
2019-03-01T05:50:33.029Z,37.88
2019-03-01T05:56:53.383Z,32.93
2019-03-01T06:00:01.595Z,31.27
2019-03-01T06:03:49.667Z,46.18
2019-03-01T06:07:17.910Z,40.80
2019-03-01T06:10:48.094Z,34.78
2019-03-01T06:18:31.858Z,54.48
2019-03-01T06:21:48.434Z,48.08
2019-03-01T06:25:09.553Z,44.73
2019-03-01T06:28:45.120Z,38.35
2019-03-01T06:32:38.611Z,35.63
2019-03-01T06:36:36.008Z,45.35
2019-03-01T06:40:16.414Z,34.88
2019-03-01T06:44:20.006Z,40.70
2019-03-01T06:48:00.642Z,39.18
2019-03-01T06:51:08.026Z,39.88
2019-03-01T06:54:08.129Z,32.98
2019-03-01T06:57:08.680Z,42.23
2019-03-01T07:00:09.593Z,39.18
2019-03-01T07:03:05.657Z,42.15
2019-03-01T07:08:49.482Z,38.98
2019-03-01T07:11:45.289Z,42.08
2019-03-01T07:14:50.217Z,45.10
2019-03-01T07:17:41.718Z,39.75
2019-03-01T07:20:36.650Z,44.85
2019-03-01T07:23:37.492Z,46.15
2019-03-01T07:26:49.437Z,41.85
2019-03-01T07:29:47.022Z,33.60
2019-03-01T07:35:32.609Z,42.55
2019-03-01T07:35:57.986Z,29.60
2019-03-01T07:39:02.176Z,39.92
2019-03-01T07:41:58.778Z,43.90
2019-03-01T07:44:55.215Z,42.80
2019-03-01T07:47:51.121Z,47.37
2019-03-01T07:50:55.281Z,32.80
2019-03-01T07:53:57.126Z,42.98
2019-03-01T07:56:54.192Z,37.93
2019-03-01T07:59:59.668Z,37.30
2019-03-01T08:03:20.841Z,42.10
2019-03-01T08:06:24.805Z,36.42
2019-03-01T08:09:36.162Z,43.70
2019-03-01T08:12:33.227Z,32.15
2019-03-01T08:15:28.320Z,40.10
2019-03-01T08:18:27.536Z,28.05
2019-03-01T08:21:23.277Z,39.48
2019-03-01T08:24:17.767Z,39.70
2019-03-01T08:27:11.531Z,38.88
2019-03-01T08:32:57.431Z,38.25
2019-03-01T08:35:52.382Z,41.18
2019-03-01T08:38:51.165Z,32.00
2019-03-01T08:41:45.775Z,26.90
2019-03-01T08:44:40.639Z,45.75
2019-03-01T08:47:35.264Z,33.73
2019-03-01T08:50:33.255Z,38.33
2019-03-01T08:53:28.632Z,38.13
2019-03-01T08:56:26.161Z,40.12
2019-03-01T08:59:24.498Z,40.43
2019-03-01T09:02:22.903Z,27.32
2019-03-01T09:05:18.460Z,40.40
2019-03-01T09:08:15.048Z,34.27
2019-03-01T09:11:10.364Z,37.33
2019-03-01T09:14:06.130Z,45.17
2019-03-01T09:17:15.657Z,33.63
2019-03-01T09:20:07.463Z,30.97
2019-03-01T09:23:19.374Z,39.48
2019-03-01T09:26:04.024Z,30.05
2019-03-01T09:31:57.679Z,32.10
2019-03-01T09:34:54.821Z,51.85
2019-03-01T09:37:56.434Z,35.45
2019-03-01T09:40:54.663Z,38.65
2019-03-01T09:44:16.019Z,40.65
2019-03-01T09:47:23.256Z,41.25
2019-03-01T09:50:18.352Z,39.00
2019-03-01T09:56:58.827Z,45.20
2019-03-01T09:59:54.047Z,36.80
2019-03-01T10:02:49.581Z,46.30
2019-03-01T10:05:45.232Z,33.28
2019-03-01T10:08:48.403Z,45.20
2019-03-01T10:12:43.378Z,45.20
2019-03-01T10:15:40.149Z,49.38
2019-03-01T10:18:37.102Z,37.90
2019-03-01T10:21:32.411Z,38.17
2019-03-01T10:24:33.295Z,54.85
2019-03-01T10:28:13.646Z,56.90
2019-03-01T10:31:10.304Z,41.30
2019-03-01T10:34:07.880Z,39.50
2019-03-01T10:37:04.029Z,54.13
2019-03-01T10:40:09.405Z,43.48
2019-03-01T10:43:19.152Z,41.90
2019-03-01T10:46:40.031Z,37.80
2019-03-01T10:49:47.822Z,38.00
2019-03-01T10:52:49.867Z,51.35
2019-03-01T10:55:48.368Z,33.88
2019-03-01T10:58:47.253Z,44.73
2019-03-01T11:01:46.731Z,44.98
2019-03-01T11:04:45.499Z,37.98
2019-03-01T11:07:49.564Z,46.70
2019-03-01T11:10:53.549Z,47.95
2019-03-01T11:13:49.427Z,47.23
2019-03-01T11:16:45.045Z,43.78
2019-03-01T11:19:41.252Z,39.85
2019-03-01T11:22:43.481Z,48.20
2019-03-01T11:25:45.169Z,58.40
2019-03-01T11:28:45.929Z,49.00
2019-03-01T11:31:43.308Z,36.68
2019-03-01T11:34:43.615Z,44.85
2019-03-01T11:37:43.369Z,49.45
2019-03-01T11:40:43.057Z,45.48
2019-03-01T11:43:40.931Z,47.00
2019-03-01T11:46:38.094Z,57.60
2019-03-01T11:49:35.659Z,49.58
2019-03-01T11:52:31.294Z,42.53
2019-03-01T11:55:30.995Z,49.45
2019-03-01T11:58:27.759Z,47.88
2019-03-01T12:01:26.378Z,53.28
2019-03-01T12:04:25.074Z,45.30
2019-03-01T12:07:28.024Z,50.08
2019-03-01T12:10:27.177Z,42.65
2019-03-01T12:13:24.452Z,48.02
2019-03-01T12:16:21.583Z,42.27
2019-03-01T12:19:21.180Z,43.68
2019-03-01T12:22:19.345Z,43.95
2019-03-01T12:25:17.820Z,38.80
2019-03-01T12:28:15.033Z,51.05
2019-03-01T12:31:10.267Z,48.13
2019-03-01T12:34:11.292Z,52.88
2019-03-01T12:37:06.724Z,52.93
2019-03-01T12:40:02.710Z,47.00
2019-03-01T12:42:57.071Z,53.60
2019-03-01T12:45:51.561Z,49.27
2019-03-01T12:48:46.092Z,54.20
2019-03-01T12:51:40.735Z,60.58
2019-03-01T12:54:35.321Z,68.87
2019-03-01T12:57:30.304Z,56.08
2019-03-01T13:00:27.808Z,46.25
2019-03-01T13:03:22.512Z,50.20
2019-03-01T13:06:17.294Z,46.13
2019-03-01T13:09:18.285Z,58.42
2019-03-01T13:12:12.810Z,59.83
2019-03-01T13:15:13.854Z,63.38
2019-03-01T13:20:57.885Z,62.58
2019-03-01T13:23:52.354Z,66.50
2019-03-01T13:26:46.803Z,69.03
2019-03-01T13:29:41.492Z,69.20
2019-03-01T13:32:37.212Z,63.17
2019-03-01T13:35:32.633Z,68.17
2019-03-01T13:38:30.471Z,67.55
2019-03-01T13:41:25.282Z,63.13
2019-03-01T13:44:19.857Z,64.97
2019-03-01T13:47:16.010Z,70.27
2019-03-01T13:50:11.093Z,65.37
2019-03-01T13:53:06.642Z,62.33
2019-03-01T13:56:02.340Z,59.55
2019-03-01T13:58:59.597Z,46.75
2019-03-01T14:01:53.712Z,82.17
2019-03-01T14:04:48.124Z,66.50
2019-03-01T14:07:42.713Z,59.03
2019-03-01T14:10:38.544Z,59.25
2019-03-01T14:13:33.193Z,72.15
2019-03-01T14:16:27.896Z,70.00
2019-03-01T14:19:22.179Z,67.58
2019-03-01T14:22:16.880Z,68.45
2019-03-01T14:25:11.924Z,60.03
2019-03-01T14:28:06.439Z,70.22
2019-03-01T14:31:04.097Z,59.88
2019-03-01T14:33:56.636Z,60.15
2019-03-01T14:36:51.058Z,73.65
2019-03-01T14:39:46.106Z,70.47
2019-03-01T14:42:40.506Z,60.70
2019-03-01T14:45:35.265Z,76.60
2019-03-01T14:48:30.020Z,59.95
2019-03-01T14:51:24.907Z,61.88
2019-03-01T14:54:21.307Z,46.30
2019-03-01T14:57:43.116Z,49.45
2019-03-01T15:00:51.264Z,62.55
2019-03-01T15:03:49.623Z,65.37
2019-03-01T15:06:42.065Z,68.65
2019-03-01T15:09:37.132Z,59.85
2019-03-01T15:12:31.924Z,66.80
2019-03-01T15:15:30.672Z,62.20
2019-03-01T15:18:24.999Z,68.97
2019-03-01T15:21:19.483Z,67.30
2019-03-01T15:24:14.086Z,67.90
2019-03-01T15:27:09.135Z,63.02
2019-03-01T15:30:05.641Z,67.10
2019-03-01T15:33:00.813Z,63.35
2019-03-01T15:35:55.137Z,51.60
2019-03-01T15:38:50.107Z,56.02
2019-03-01T15:41:46.281Z,58.17
2019-03-01T15:44:41.253Z,60.50
2019-03-01T15:47:37.250Z,56.58
2019-03-01T15:50:32.972Z,60.75
2019-03-01T15:53:29.185Z,48.50
2019-03-01T15:56:25.100Z,55.77
2019-03-01T15:59:19.446Z,50.65
2019-03-01T16:02:13.993Z,50.05
2019-03-01T16:05:08.816Z,61.18
2019-03-01T16:08:05.442Z,53.38
2019-03-01T16:10:59.077Z,60.15
2019-03-01T16:13:53.442Z,60.65
2019-03-01T16:16:49.073Z,57.88
2019-03-01T16:19:46.898Z,58.70
2019-03-01T16:22:39.699Z,54.10
2019-03-01T16:25:34.799Z,58.52
2019-03-01T16:28:31.211Z,67.72
2019-03-01T16:31:25.836Z,57.90
2019-03-01T16:34:21.453Z,50.90
2019-03-01T16:37:16.201Z,43.52
2019-03-01T16:40:13.120Z,59.48
2019-03-01T16:43:08.206Z,55.95
2019-03-01T16:46:04.084Z,54.90
2019-03-01T16:48:59.105Z,58.30
2019-03-01T16:51:53.877Z,66.75
2019-03-01T16:54:51.470Z,50.38
2019-03-01T16:57:48.663Z,52.75
2019-03-01T17:00:43.430Z,60.60
2019-03-01T17:03:39.174Z,65.70
2019-03-01T17:06:34.190Z,62.15
2019-03-01T17:09:29.001Z,60.73
2019-03-01T17:12:28.002Z,67.62
2019-03-01T17:15:23.543Z,56.55
2019-03-01T17:18:18.111Z,49.60
2019-03-01T17:21:15.858Z,43.38
2019-03-01T17:24:08.636Z,47.27
2019-03-01T17:27:05.738Z,45.85
2019-03-01T17:30:00.323Z,50.67
2019-03-01T17:32:55.012Z,40.85
2019-03-01T17:35:50.116Z,49.40
2019-03-01T17:38:46.152Z,44.67
2019-03-01T17:41:44.681Z,52.67
2019-03-01T17:44:36.869Z,61.28
2019-03-01T17:47:31.572Z,57.50
2019-03-01T17:50:26.170Z,62.08
2019-03-01T17:53:20.697Z,59.55
2019-03-01T17:56:15.046Z,52.95
2019-03-01T17:59:11.968Z,54.77
2019-03-01T18:02:04.833Z,53.30
2019-03-01T18:04:59.214Z,57.23
2019-03-01T18:07:54.236Z,49.85
2019-03-01T18:10:48.840Z,66.30
2019-03-01T18:13:43.273Z,47.75
2019-03-01T18:16:37.796Z,56.28
2019-03-01T18:19:32.091Z,47.60
2019-03-01T18:22:27.557Z,61.77
2019-03-01T18:25:22.756Z,55.50
2019-03-01T18:28:17.947Z,65.33
2019-03-01T18:31:12.430Z,44.37
2019-03-01T18:34:06.941Z,43.20
2019-03-01T18:36:59.764Z,45.85
2019-03-01T18:39:54.700Z,50.30
2019-03-01T18:42:49.562Z,43.77
2019-03-01T18:45:44.188Z,58.90
2019-03-01T18:48:40.545Z,48.15
2019-03-01T18:51:34.035Z,50.90
2019-03-01T18:54:28.851Z,46.15
2019-03-01T18:57:23.500Z,43.70
2019-03-01T19:00:24.578Z,55.50
2019-03-01T19:03:19.222Z,50.15
2019-03-01T19:06:16.318Z,54.50
2019-03-01T19:09:12.671Z,36.48
2019-03-01T19:12:09.409Z,36.83
2019-03-01T19:15:03.305Z,40.00
2019-03-01T19:17:59.265Z,34.83
2019-03-01T19:20:54.080Z,43.65
2019-03-01T19:23:48.767Z,39.27
2019-03-01T19:26:43.063Z,34.70
2019-03-01T19:29:38.171Z,50.20
2019-03-01T19:32:34.459Z,34.93
2019-03-01T19:35:29.876Z,58.80
2019-03-01T19:38:25.096Z,46.60
2019-03-01T19:41:22.630Z,43.85
2019-03-01T19:44:16.305Z,46.53
2019-03-01T19:47:10.855Z,52.13
2019-03-01T19:50:03.431Z,55.33
2019-03-01T19:52:58.007Z,40.80
2019-03-01T19:55:48.541Z,52.30
2019-03-01T19:58:44.130Z,46.73
2019-03-01T20:01:38.455Z,53.35
2019-03-01T20:04:32.938Z,41.33
2019-03-01T20:07:27.260Z,69.37
2019-03-01T20:10:21.763Z,35.45
2019-03-01T20:13:16.393Z,44.50
2019-03-01T20:16:15.677Z,47.90
2019-03-01T20:19:10.137Z,53.08
2019-03-01T20:22:04.749Z,51.50
2019-03-01T20:24:59.197Z,47.00
2019-03-01T20:27:53.618Z,51.70
2019-03-01T20:30:48.399Z,48.85
2019-03-01T20:33:44.046Z,62.15
2019-03-01T20:36:38.512Z,45.50
2019-03-01T20:39:33.286Z,47.45
2019-03-01T20:42:29.497Z,46.02
2019-03-01T20:45:30.248Z,79.82
2019-03-01T20:48:28.913Z,72.03
2019-03-01T20:51:26.548Z,55.35
2019-03-01T20:54:17.954Z,49.03
2019-03-01T20:57:12.842Z,51.73
2019-03-01T21:00:09.607Z,90.83
2019-03-01T21:03:05.431Z,70.03
2019-03-01T21:06:01.638Z,61.08
2019-03-01T21:08:56.144Z,87.17
2019-03-01T21:11:50.459Z,56.58
2019-03-01T21:14:44.967Z,99.62
2019-03-01T21:17:39.371Z,63.98
2019-03-01T21:20:35.067Z,79.42
2019-03-01T21:23:31.018Z,125.35
2019-03-01T21:26:25.450Z,81.25
2019-03-01T21:29:20.043Z,85.00
2019-03-01T21:32:15.653Z,70.55
2019-03-01T21:35:13.592Z,64.55
2019-03-01T21:38:10.605Z,76.53
2019-03-01T21:41:06.330Z,112.35
2019-03-01T21:44:00.851Z,121.93
2019-03-01T21:46:55.368Z,87.78
2019-03-01T21:49:50.892Z,99.35
2019-03-01T21:52:45.297Z,87.97
2019-03-01T21:55:39.626Z,86.70
2019-03-01T21:58:34.102Z,79.05
2019-03-01T22:01:29.646Z,77.82
2019-03-01T22:04:22.393Z,72.15
2019-03-01T22:07:18.273Z,62.25
2019-03-01T22:10:14.186Z,70.72
2019-03-01T22:13:08.903Z,70.20
2019-03-01T22:16:03.217Z,58.35
2019-03-01T22:18:58.751Z,68.05
2019-03-01T22:21:54.781Z,66.47
2019-03-01T22:24:49.414Z,66.20
2019-03-01T22:27:44.201Z,54.93
2019-03-01T22:30:38.636Z,64.95
2019-03-01T22:33:33.203Z,59.33
2019-03-01T22:36:27.614Z,57.70
2019-03-01T22:39:22.045Z,57.95
2019-03-01T22:42:16.615Z,52.13
2019-03-01T22:45:18.942Z,60.92
2019-03-01T22:48:13.309Z,57.45
2019-03-01T22:51:08.747Z,59.58
2019-03-01T22:54:03.916Z,50.35
2019-03-01T22:56:58.353Z,57.40
2019-03-01T22:59:52.655Z,50.07
2019-03-01T23:02:48.840Z,49.42
2019-03-01T23:05:43.166Z,51.05
2019-03-01T23:08:39.376Z,42.95
2019-03-01T23:11:34.124Z,46.77
2019-03-01T23:14:30.828Z,43.87
2019-03-01T23:17:30.386Z,49.48
2019-03-01T23:20:26.518Z,47.00
2019-03-01T23:23:23.780Z,49.55
2019-03-01T23:26:14.732Z,44.55
2019-03-01T23:29:15.706Z,42.78
2019-03-01T23:32:08.258Z,46.50
2019-03-01T23:35:02.885Z,44.15
2019-03-01T23:37:57.831Z,50.80
2019-03-01T23:40:52.161Z,46.23
2019-03-01T23:43:46.518Z,41.05
2019-03-01T23:46:41.223Z,53.10
2019-03-01T23:49:36.962Z,41.40
2019-03-01T23:52:31.613Z,39.42
2019-03-01T23:55:26.498Z,44.53
2019-03-01T23:58:21.131Z,47.80
